Time;durP1;ratioP1;P1;durP2;ratioP2;P2;SDS_P1;SDS_P2;PMS_P1;PMS_P2;Temp;Humidity;BMP_temperature;BMP_pressure;BME280_temperature;BME280_humidity;BME280_pressure;Samples;Min_cycle;Max_cycle;Signal;HPM_P1;HPM_P2
2021/07/13 00:01:43;;;;;;;21.80;19.75;;;21.80;99.90;;;;;;5077714;28;20193;-79
2021/07/13 00:04:10;;;;;;;31.38;29.75;;;21.90;99.90;;;;;;5077631;28;20236;-78
2021/07/13 00:06:37;;;;;;;34.28;32.42;;;21.90;99.90;;;;;;5083332;28;20217;-78
2021/07/13 00:09:06;;;;;;;31.92;29.98;;;22.00;99.90;;;;;;5079813;28;20217;-79
2021/07/13 00:11:33;;;;;;;37.38;35.38;;;22.10;99.90;;;;;;5080549;28;20235;-79
2021/07/13 00:14:02;;;;;;;29.33;27.83;;;22.10;99.90;;;;;;5079958;28;20212;-79
2021/07/13 00:16:29;;;;;;;28.80;27.17;;;22.10;99.90;;;;;;5084131;28;20307;-79
2021/07/13 00:18:56;;;;;;;28.20;26.52;;;22.10;99.90;;;;;;5075912;28;20194;-78
2021/07/13 00:21:23;;;;;;;26.10;24.55;;;22.10;99.90;;;;;;5086046;28;20197;-79
2021/07/13 00:23:49;;;;;;;27.60;25.75;;;21.80;99.90;;;;;;5075658;28;20600;-78
2021/07/13 00:26:17;;;;;;;25.48;23.75;;;21.50;99.90;;;;;;5076300;28;20205;-79
2021/07/13 00:28:44;;;;;;;29.00;27.23;;;21.50;99.90;;;;;;5080299;28;20202;-78
2021/07/13 00:31:12;;;;;;;25.98;24.55;;;21.50;99.90;;;;;;5083248;28;20189;-78
2021/07/13 00:33:39;;;;;;;32.70;30.17;;;21.60;99.90;;;;;;5075580;28;20205;-78
2021/07/13 00:36:06;;;;;;;27.73;26.17;;;21.40;99.90;;;;;;5075109;28;20201;-79
2021/07/13 00:38:33;;;;;;;29.10;27.38;;;21.30;99.90;;;;;;5081913;28;20204;-78
2021/07/13 00:41:00;;;;;;;31.27;29.65;;;21.40;99.90;;;;;;5086961;28;20212;-78
2021/07/13 00:43:30;;;;;;;46.55;43.90;;;21.50;99.90;;;;;;5080210;28;20224;-79
2021/07/13 00:45:59;;;;;;;43.90;41.22;;;21.70;99.90;;;;;;5078703;28;20228;-79
2021/07/13 00:48:27;;;;;;;38.10;35.78;;;21.70;99.90;;;;;;5074760;28;20252;-79
2021/07/13 00:50:54;;;;;;;35.63;33.55;;;21.80;99.90;;;;;;5081740;28;20228;-78
2021/07/13 00:53:25;;;;;;;37.92;35.78;;;21.80;99.90;;;;;;5078040;28;20220;-78
2021/07/13 01:01:18;;;;;;;33.60;31.60;;;21.90;99.90;;;;;;5074065;28;20586;-79
2021/07/13 01:03:47;;;;;;;34.72;32.83;;;21.70;99.90;;;;;;5074854;28;20267;-78
2021/07/13 01:06:19;;;;;;;33.85;31.98;;;21.60;99.90;;;;;;5076979;28;20223;-79
2021/07/13 01:08:56;;;;;;;50.45;47.75;;;21.70;99.90;;;;;;5085184;28;20197;-79
2021/07/13 01:11:31;;;;;;;41.58;39.40;;;21.70;99.90;;;;;;5079651;28;20215;-79
2021/07/13 01:14:06;;;;;;;43.13;40.70;;;21.80;99.90;;;;;;5074088;28;20205;-78
2021/07/13 01:16:40;;;;;;;31.25;29.65;;;21.80;99.90;;;;;;5072005;28;20197;-78
2021/07/13 01:19:18;;;;;;;37.30;35.00;;;21.90;99.90;;;;;;5077006;28;20197;-77
2021/07/13 01:21:50;;;;;;;46.35;43.05;;;21.80;99.90;;;;;;5070788;28;20244;-77
2021/07/13 01:24:49;;;;;;;50.28;47.10;;;21.80;99.90;;;;;;5076303;28;20269;-77
2021/07/13 01:27:38;;;;;;;37.45;35.25;;;21.80;99.90;;;;;;5071059;28;20244;-77
2021/07/13 01:30:10;;;;;;;36.97;34.70;;;21.70;99.90;;;;;;5082192;28;20201;-77
2021/07/13 01:32:38;;;;;;;46.50;43.60;;;21.60;99.90;;;;;;5069734;28;20210;-77
2021/07/13 01:35:10;;;;;;;41.22;38.60;;;21.50;99.90;;;;;;5069144;28;20198;-78
2021/07/13 01:37:40;;;;;;;44.83;42.25;;;21.50;99.90;;;;;;5069221;28;20255;-77
2021/07/13 01:40:09;;;;;;;42.60;40.17;;;21.50;99.90;;;;;;5069906;28;20205;-77
2021/07/13 01:42:38;;;;;;;46.42;43.47;;;21.60;99.90;;;;;;5070138;28;20209;-77
2021/07/13 01:45:08;;;;;;;12.20;11.00;;;21.60;99.90;;;;;;5068996;28;20261;-77
2021/07/13 01:47:35;;;;;;;14.52;10.65;;;21.60;99.90;;;;;;5075157;28;20224;-77
2021/07/13 01:50:04;;;;;;;13.48;12.27;;;21.60;99.90;;;;;;5068613;28;20236;-77
2021/07/13 01:52:33;;;;;;;10.80;9.48;;;21.60;99.90;;;;;;5068481;28;20209;-77
2021/07/13 01:55:01;;;;;;;14.05;12.85;;;21.60;99.90;;;;;;5068525;28;20259;-77
2021/07/13 01:57:29;;;;;;;11.48;10.27;;;21.50;99.90;;;;;;5074816;28;20231;-78
2021/07/13 01:59:58;;;;;;;12.68;10.45;;;21.60;99.90;;;;;;5076138;28;20202;-78
2021/07/13 02:02:28;;;;;;;12.80;9.60;;;21.60;99.90;;;;;;5071540;28;20212;-78
2021/07/13 02:04:57;;;;;;;14.13;10.80;;;21.50;99.90;;;;;;5078168;28;20228;-78
2021/07/13 02:07:25;;;;;;;13.65;10.85;;;21.50;99.90;;;;;;5070231;28;20251;-78
2021/07/13 02:09:52;;;;;;;11.95;9.38;;;21.50;99.90;;;;;;5072164;28;20197;-78
2021/07/13 02:12:19;;;;;;;15.65;11.02;;;21.40;99.90;;;;;;5076053;28;20205;-78
2021/07/13 02:14:46;;;;;;;12.82;11.57;;;21.30;99.90;;;;;;5072631;28;20313;-78
2021/07/13 02:17:13;;;;;;;16.95;15.20;;;21.30;99.90;;;;;;5075827;28;20201;-78
2021/07/13 02:19:41;;;;;;;14.07;11.98;;;21.40;99.90;;;;;;5075341;28;20205;-78
2021/07/13 02:22:09;;;;;;;16.13;13.85;;;21.40;99.90;;;;;;5075040;28;20197;-78
2021/07/13 02:24:36;;;;;;;14.13;12.75;;;21.40;99.90;;;;;;5081037;28;20248;-78
2021/07/13 02:27:07;;;;;;;13.07;11.68;;;21.30;99.90;;;;;;5072720;28;20229;-78
2021/07/13 02:29:39;;;;;;;16.30;12.73;;;21.30;99.90;;;;;;5077463;28;20227;-78
2021/07/13 02:32:10;;;;;;;12.68;10.35;;;21.10;99.90;;;;;;5071766;28;20205;-78
2021/07/13 02:34:42;;;;;;;16.35;11.70;;;20.90;99.90;;;;;;5072398;28;20269;-78
2021/07/13 02:37:12;;;;;;;12.85;11.25;;;20.80;99.90;;;;;;5072464;28;20205;-78
2021/07/13 02:39:41;;;;;;;12.52;11.25;;;20.50;99.90;;;;;;5078678;28;20227;-78
2021/07/13 02:42:09;;;;;;;15.38;14.02;;;20.30;99.90;;;;;;5073322;28;20201;-78
2021/07/13 02:44:38;;;;;;;14.73;13.38;;;20.30;99.90;;;;;;5077525;28;20273;-78
2021/07/13 02:47:07;;;;;;;19.30;17.65;;;20.20;99.90;;;;;;5081896;28;20225;-78
2021/07/13 02:49:43;;;;;;;19.55;14.10;;;20.30;99.90;;;;;;5075759;28;20193;-78
2021/07/13 02:52:12;;;;;;;19.75;17.63;;;20.40;99.90;;;;;;5075487;28;20201;-78
2021/07/13 02:54:41;;;;;;;18.33;14.85;;;20.50;99.90;;;;;;5075555;28;20205;-78
2021/07/13 02:57:10;;;;;;;16.30;14.80;;;20.50;99.90;;;;;;5080325;28;20228;-78
2021/07/13 02:59:40;;;;;;;17.02;15.40;;;20.70;99.90;;;;;;5075810;28;20205;-78
2021/07/13 03:02:07;;;;;;;17.02;15.45;;;20.80;99.90;;;;;;5079741;28;20202;-78
2021/07/13 03:04:35;;;;;;;16.60;15.00;;;20.80;99.90;;;;;;5080238;28;20225;-79
2021/07/13 03:07:03;;;;;;;17.73;15.90;;;20.90;99.90;;;;;;5076446;28;20201;-79
2021/07/13 03:09:31;;;;;;;17.17;15.73;;;21.00;99.90;;;;;;5071849;28;20228;-77
2021/07/13 03:12:00;;;;;;;18.63;17.08;;;21.10;99.90;;;;;;5072758;28;20217;-76
2021/07/13 03:14:30;;;;;;;17.63;16.10;;;21.10;99.90;;;;;;5076150;28;20202;-77
2021/07/13 03:16:57;;;;;;;15.57;14.20;;;21.10;99.90;;;;;;5078692;28;20205;-77
2021/07/13 03:19:24;;;;;;;15.00;13.60;;;21.10;99.90;;;;;;5072683;28;20235;-77
2021/07/13 03:21:55;;;;;;;14.35;12.85;;;21.10;99.90;;;;;;5077369;28;20217;-78
2021/07/13 03:24:25;;;;;;;16.50;14.98;;;21.10;99.90;;;;;;5075872;28;20190;-78
2021/07/13 03:26:57;;;;;;;17.65;16.00;;;21.10;99.90;;;;;;5081358;28;20209;-78
2021/07/13 03:29:24;;;;;;;14.13;11.45;;;21.20;99.90;;;;;;5075477;28;20477;-78
2021/07/13 03:31:51;;;;;;;15.30;13.60;;;21.10;99.90;;;;;;5073931;28;20231;-78
2021/07/13 03:34:19;;;;;;;17.98;14.77;;;21.10;99.90;;;;;;5080039;28;20300;-78
2021/07/13 03:36:48;;;;;;;14.35;12.70;;;21.20;99.90;;;;;;5085998;28;20206;-78
2021/07/13 03:39:16;;;;;;;15.45;13.95;;;21.20;99.90;;;;;;5075418;28;20210;-78
2021/07/13 03:41:44;;;;;;;15.55;14.13;;;21.20;99.90;;;;;;5071708;28;20205;-78
2021/07/13 03:44:14;;;;;;;14.93;13.57;;;21.20;99.90;;;;;;5076902;28;20266;-78
2021/07/13 03:46:41;;;;;;;14.18;12.73;;;21.30;99.90;;;;;;5073770;28;20206;-78
2021/07/13 03:49:10;;;;;;;16.65;15.05;;;21.30;99.90;;;;;;5075093;28;20252;-77
2021/07/13 03:51:40;;;;;;;19.00;12.57;;;21.20;99.90;;;;;;5079888;28;20201;-78
2021/07/13 03:54:08;;;;;;;18.58;13.23;;;21.00;99.90;;;;;;5076166;28;20209;-78
2021/07/13 03:56:40;;;;;;;15.65;14.05;;;20.80;99.90;;;;;;5077447;28;20201;-78
2021/07/13 03:59:07;;;;;;;16.35;13.88;;;20.80;99.90;;;;;;5071345;28;20201;-77
2021/07/13 04:01:36;;;;;;;19.05;15.52;;;20.80;99.90;;;;;;5072921;28;20198;-77
2021/07/13 04:04:04;;;;;;;20.83;14.48;;;20.80;99.90;;;;;;5075801;28;20256;-78
2021/07/13 04:06:31;;;;;;;21.70;14.80;;;20.90;99.90;;;;;;5072403;28;20224;-77
2021/07/13 04:08:58;;;;;;;18.08;13.23;;;21.00;99.90;;;;;;5075913;28;20224;-78
2021/07/13 04:11:25;;;;;;;15.98;13.90;;;21.10;99.90;;;;;;5074691;28;20644;-77
2021/07/13 04:13:52;;;;;;;15.05;13.45;;;21.10;99.90;;;;;;5083997;28;20204;-77
2021/07/13 04:16:19;;;;;;;16.48;13.48;;;21.20;99.90;;;;;;5075828;28;20202;-77
2021/07/13 04:18:47;;;;;;;20.17;16.80;;;21.30;99.90;;;;;;5072215;28;20259;-77
2021/07/13 04:21:15;;;;;;;14.95;13.43;;;21.20;99.90;;;;;;5070844;28;20198;-77
2021/07/13 04:23:42;;;;;;;19.27;17.25;;;21.10;99.90;;;;;;5070646;28;20206;-77
2021/07/13 04:26:09;;;;;;;20.15;18.30;;;21.10;99.90;;;;;;5070637;28;20204;-77
2021/07/13 04:28:36;;;;;;;24.75;16.35;;;21.00;99.90;;;;;;5070214;28;20236;-77
2021/07/13 04:31:04;;;;;;;17.35;15.55;;;21.10;99.90;;;;;;5075964;28;20247;-77
2021/07/13 04:33:31;;;;;;;19.30;17.40;;;21.10;99.90;;;;;;5073530;28;20224;-77
2021/07/13 04:36:00;;;;;;;14.82;13.32;;;21.10;99.90;;;;;;5070809;28;20228;-77
2021/07/13 04:38:27;;;;;;;16.55;14.60;;;21.10;99.90;;;;;;5071897;28;20206;-78
2021/07/13 04:40:54;;;;;;;15.95;14.25;;;21.10;99.90;;;;;;5074979;28;20201;-78
2021/07/13 04:43:22;;;;;;;21.05;16.98;;;21.00;99.90;;;;;;5084045;28;20201;-78
2021/07/13 04:45:48;;;;;;;23.13;20.90;;;21.10;99.90;;;;;;5076687;28;20202;-78
2021/07/13 04:48:15;;;;;;;19.52;17.58;;;21.10;99.90;;;;;;5083306;28;20224;-78
2021/07/13 04:50:43;;;;;;;19.10;17.13;;;21.10;99.90;;;;;;5079309;28;20209;-78
2021/07/13 04:53:11;;;;;;;20.00;18.08;;;21.10;99.90;;;;;;5073464;28;20206;-78
2021/07/13 04:55:38;;;;;;;18.45;16.75;;;21.20;99.90;;;;;;5071932;28;20206;-78
2021/07/13 04:58:05;;;;;;;18.33;16.33;;;21.20;99.90;;;;;;5071219;28;20197;-78
2021/07/13 05:00:32;;;;;;;20.02;17.42;;;21.20;99.90;;;;;;5075479;28;20231;-77
2021/07/13 05:02:59;;;;;;;21.25;19.15;;;21.20;99.90;;;;;;5074051;28;20255;-78
2021/07/13 05:05:26;;;;;;;20.73;18.50;;;21.10;99.90;;;;;;5070974;28;20202;-77
2021/07/13 05:07:53;;;;;;;24.63;22.10;;;21.10;99.90;;;;;;5078758;28;20228;-78
2021/07/13 05:10:22;;;;;;;21.80;19.70;;;21.10;99.90;;;;;;5071540;28;20198;-78
2021/07/13 05:12:48;;;;;;;23.48;21.08;;;21.10;99.90;;;;;;5075228;28;20202;-78
2021/07/13 05:15:17;;;;;;;18.27;16.33;;;21.10;99.90;;;;;;5071813;28;20210;-77
2021/07/13 05:17:44;;;;;;;22.25;20.08;;;21.10;99.90;;;;;;5076801;28;20230;-77
2021/07/13 05:20:13;;;;;;;24.40;20.30;;;21.10;99.90;;;;;;5074397;28;20228;-77
2021/07/13 05:22:41;;;;;;;23.20;18.73;;;21.10;99.90;;;;;;5076805;28;20216;-78
2021/07/13 05:25:10;;;;;;;27.98;20.45;;;21.10;99.90;;;;;;5072238;28;20205;-78
2021/07/13 05:27:40;;;;;;;25.05;19.33;;;21.10;99.90;;;;;;5070538;28;20201;-77
2021/07/13 05:30:10;;;;;;;25.27;20.08;;;21.20;99.90;;;;;;5080327;28;20186;-77
2021/07/13 05:32:37;;;;;;;29.58;21.00;;;21.20;99.90;;;;;;5083136;28;20190;-77
2021/07/13 05:35:06;;;;;;;25.65;21.25;;;21.30;99.90;;;;;;5072329;28;20213;-78
2021/07/13 05:37:34;;;;;;;27.75;21.30;;;21.30;99.90;;;;;;5075222;28;20210;-77
2021/07/13 05:40:01;;;;;;;29.35;20.75;;;21.20;99.90;;;;;;5076852;28;20233;-78
2021/07/13 05:42:28;;;;;;;30.13;21.15;;;21.20;99.90;;;;;;5072690;28;20194;-78
2021/07/13 05:44:57;;;;;;;30.98;20.60;;;21.20;99.90;;;;;;5077381;28;20201;-78
2021/07/13 05:47:24;;;;;;;31.67;23.63;;;21.10;99.90;;;;;;5078925;28;20205;-78
2021/07/13 05:49:50;;;;;;;33.58;24.92;;;21.10;99.90;;;;;;5077725;28;20229;-78
2021/07/13 05:52:17;;;;;;;30.58;21.92;;;21.10;99.90;;;;;;5077891;28;20206;-78
2021/07/13 05:54:44;;;;;;;26.95;21.73;;;21.10;99.90;;;;;;5076564;28;20223;-77
2021/07/13 05:57:11;;;;;;;29.73;22.60;;;21.00;99.90;;;;;;5081403;28;20220;-78
2021/07/13 05:59:38;;;;;;;29.10;23.38;;;21.00;99.90;;;;;;5074704;28;20206;-77
2021/07/13 06:02:07;;;;;;;30.30;21.63;;;21.10;99.90;;;;;;5068649;28;20552;-77
2021/07/13 06:04:34;;;;;;;35.05;23.13;;;21.10;99.90;;;;;;5068351;28;20229;-77
2021/07/13 06:07:01;;;;;;;30.25;22.50;;;21.20;99.90;;;;;;5068937;28;20197;-77
2021/07/13 06:09:29;;;;;;;31.25;21.25;;;21.10;99.90;;;;;;5068327;28;20232;-77
2021/07/13 06:11:55;;;;;;;26.75;20.15;;;21.10;99.90;;;;;;5067998;28;20212;-77
2021/07/13 06:14:25;;;;;;;30.58;22.00;;;21.00;99.90;;;;;;5068135;28;20202;-77
2021/07/13 06:16:52;;;;;;;27.77;20.35;;;21.00;99.90;;;;;;5075606;28;20235;-77
2021/07/13 06:19:20;;;;;;;27.98;19.48;;;20.90;99.90;;;;;;5073415;28;20645;-77
2021/07/13 06:21:47;;;;;;;25.60;19.30;;;20.90;99.90;;;;;;5073593;28;20227;-77
2021/07/13 06:24:15;;;;;;;28.10;20.92;;;20.90;99.90;;;;;;5075259;28;20208;-77
2021/07/13 06:26:41;;;;;;;26.08;22.85;;;20.90;99.90;;;;;;5074649;28;20224;-77
2021/07/13 06:29:08;;;;;;;26.88;20.45;;;21.00;99.90;;;;;;5076720;28;20221;-77
2021/07/13 06:31:35;;;;;;;23.67;18.98;;;21.00;99.90;;;;;;5073646;28;20210;-77
2021/07/13 06:34:02;;;;;;;26.90;19.88;;;20.90;99.90;;;;;;5082095;28;20201;-77
2021/07/13 06:36:31;;;;;;;23.52;18.55;;;20.90;99.90;;;;;;5077326;28;20224;-77
2021/07/13 06:38:57;;;;;;;26.58;18.92;;;20.90;99.90;;;;;;5070671;28;20223;-76
2021/07/13 06:41:25;;;;;;;28.02;21.30;;;21.00;99.90;;;;;;5076251;28;20543;-77
2021/07/13 06:43:52;;;;;;;27.52;19.00;;;21.10;99.90;;;;;;5072915;28;20206;-77
2021/07/13 06:46:19;;;;;;;28.10;21.38;;;21.20;99.90;;;;;;5072491;28;20198;-77
2021/07/13 06:48:46;;;;;;;25.95;19.27;;;21.20;99.90;;;;;;5072154;28;20294;-77
2021/07/13 06:51:13;;;;;;;27.05;20.38;;;21.30;99.90;;;;;;5071085;28;20201;-77
2021/07/13 06:53:41;;;;;;;30.42;19.45;;;21.20;99.90;;;;;;5075629;28;20201;-77
2021/07/13 06:56:08;;;;;;;29.42;22.83;;;21.30;99.90;;;;;;5076481;28;20200;-77
2021/07/13 06:58:35;;;;;;;24.75;19.48;;;21.30;99.90;;;;;;5072238;28;20568;-77
2021/07/13 07:01:02;;;;;;;25.65;20.23;;;21.30;99.90;;;;;;5072772;28;20206;-77
2021/07/13 07:03:29;;;;;;;26.15;19.52;;;21.30;99.90;;;;;;5074419;28;20294;-78
2021/07/13 07:05:56;;;;;;;31.08;20.98;;;21.30;99.90;;;;;;5074195;28;20259;-78
2021/07/13 07:08:23;;;;;;;36.55;21.55;;;21.40;99.90;;;;;;5073283;28;20251;-77
2021/07/13 07:10:51;;;;;;;26.38;19.98;;;21.40;99.90;;;;;;5075357;28;20291;-77
2021/07/13 07:13:18;;;;;;;29.40;23.23;;;21.30;99.90;;;;;;5072958;28;20215;-77
2021/07/13 07:15:53;;;;;;;26.60;19.80;;;21.30;99.90;;;;;;5074653;28;20591;-79
2021/07/13 07:18:23;;;;;;;38.80;20.52;;;21.30;99.90;;;;;;5074993;28;20205;-77
2021/07/13 07:20:50;;;;;;;28.13;20.17;;;21.30;99.90;;;;;;5073088;28;20293;-77
2021/07/13 07:23:17;;;;;;;28.85;19.10;;;21.30;99.90;;;;;;5068762;28;20206;-77
2021/07/13 07:25:44;;;;;;;27.85;20.50;;;21.30;99.90;;;;;;5070813;28;20254;-77
2021/07/13 07:28:12;;;;;;;34.63;21.35;;;21.20;99.90;;;;;;5074729;28;20201;-77
2021/07/13 07:30:39;;;;;;;29.13;20.83;;;21.20;99.90;;;;;;5069318;28;20212;-77
2021/07/13 07:33:06;;;;;;;29.35;21.10;;;21.20;99.90;;;;;;5068970;28;20206;-77
2021/07/13 07:35:33;;;;;;;34.55;22.60;;;21.10;99.90;;;;;;5073148;28;20197;-77
2021/07/13 07:38:00;;;;;;;31.58;22.70;;;21.10;99.90;;;;;;5078841;28;20212;-77
2021/07/13 07:40:28;;;;;;;33.17;24.90;;;21.00;99.90;;;;;;5074243;28;20701;-78
2021/07/13 07:42:57;;;;;;;34.28;23.30;;;20.90;99.90;;;;;;5072583;28;20223;-77
2021/07/13 07:45:26;;;;;;;37.05;25.00;;;20.80;99.90;;;;;;5069193;28;20419;-77
2021/07/13 07:47:53;;;;;;;34.95;23.98;;;20.80;99.90;;;;;;5076128;28;20226;-77
2021/07/13 07:50:22;;;;;;;34.08;24.33;;;20.80;99.90;;;;;;5071212;28;20255;-77
2021/07/13 07:52:49;;;;;;;33.97;23.88;;;20.80;99.90;;;;;;5072033;28;20208;-77
2021/07/13 07:55:19;;;;;;;31.05;22.20;;;20.80;99.90;;;;;;5069973;28;20232;-77
2021/07/13 07:57:46;;;;;;;33.45;24.23;;;20.80;99.90;;;;;;5075387;28;20205;-77
2021/07/13 08:00:16;;;;;;;33.53;24.50;;;20.80;99.90;;;;;;5068800;28;20213;-77
2021/07/13 08:02:45;;;;;;;32.70;23.50;;;20.90;99.90;;;;;;5068208;28;20256;-77
2021/07/13 08:05:14;;;;;;;34.85;23.75;;;20.90;99.90;;;;;;5071226;28;20216;-78
2021/07/13 08:07:42;;;;;;;36.50;24.92;;;21.00;99.90;;;;;;5088149;28;20270;-77
2021/07/13 08:10:11;;;;;;;38.88;27.45;;;21.10;99.90;;;;;;5082868;28;20218;-77
2021/07/13 08:12:39;;;;;;;37.22;24.67;;;21.20;99.90;;;;;;5068185;28;20278;-77
2021/07/13 08:15:07;;;;;;;35.58;26.00;;;21.20;99.90;;;;;;5069649;28;20201;-77
2021/07/13 08:17:34;;;;;;;36.42;24.10;;;21.20;99.90;;;;;;5068095;28;20202;-77
2021/07/13 08:20:03;;;;;;;33.75;24.67;;;21.30;99.90;;;;;;5072372;28;20210;-77
2021/07/13 08:22:32;;;;;;;35.08;24.60;;;21.30;99.90;;;;;;5075186;28;20259;-78
2021/07/13 08:24:59;;;;;;;45.38;25.67;;;21.40;99.90;;;;;;5076490;28;20197;-78
2021/07/13 08:27:28;;;;;;;30.75;22.48;;;21.40;99.90;;;;;;5072538;28;20198;-78
2021/07/13 08:29:59;;;;;;;35.25;25.98;;;21.40;99.90;;;;;;5075205;28;20232;-78
2021/07/13 08:32:26;;;;;;;35.47;26.83;;;21.40;99.90;;;;;;5077158;28;20300;-78
2021/07/13 08:34:52;;;;;;;37.45;24.60;;;21.50;99.90;;;;;;5079162;28;20201;-77
2021/07/13 08:37:21;;;;;;;32.60;25.52;;;21.60;99.90;;;;;;5069813;28;20235;-78
2021/07/13 08:39:48;;;;;;;36.15;26.40;;;21.50;99.90;;;;;;5070033;28;20209;-78
2021/07/13 08:42:15;;;;;;;39.28;26.98;;;21.40;99.90;;;;;;5070587;28;20206;-78
2021/07/13 08:44:43;;;;;;;38.22;25.42;;;21.30;99.90;;;;;;5078799;28;20198;-78
2021/07/13 08:47:15;;;;;;;39.30;25.00;;;21.20;99.90;;;;;;5076898;28;20734;-78
2021/07/13 08:49:43;;;;;;;38.13;27.63;;;21.20;99.90;;;;;;5077498;28;20315;-78
2021/07/13 08:52:10;;;;;;;37.53;26.50;;;21.20;99.90;;;;;;5069701;28;20197;-78
2021/07/13 08:54:38;;;;;;;41.15;26.83;;;21.20;99.90;;;;;;5076811;28;20214;-78
2021/07/13 08:57:05;;;;;;;35.63;26.60;;;21.20;99.90;;;;;;5067595;28;20229;-77
2021/07/13 08:59:32;;;;;;;39.95;28.30;;;21.30;99.90;;;;;;5067158;28;20201;-78
2021/07/13 09:01:59;;;;;;;39.60;27.60;;;21.20;99.90;;;;;;5075009;28;20198;-78
2021/07/13 09:04:34;;;;;;;42.78;29.08;;;21.20;99.90;;;;;;5077878;28;20262;-78
2021/07/13 09:07:07;;;;;;;43.03;29.80;;;21.30;99.90;;;;;;5073936;28;20223;-78
2021/07/13 09:09:36;;;;;;;46.13;30.17;;;21.40;99.90;;;;;;5074693;28;20221;-79
2021/07/13 09:12:16;;;;;;;45.60;29.95;;;21.40;99.90;;;;;;5070538;28;20202;-78
2021/07/13 09:14:52;;;;;;;46.08;29.60;;;21.40;99.90;;;;;;5072351;28;20201;-80
2021/07/13 09:17:47;;;;;;;39.25;29.23;;;21.50;99.90;;;;;;5072428;28;20205;-77
2021/07/13 09:20:21;;;;;;;42.55;30.27;;;21.40;99.90;;;;;;5066355;28;20221;-76
2021/07/13 09:22:58;;;;;;;49.55;31.70;;;21.50;99.90;;;;;;5072650;28;20232;-76
2021/07/13 09:25:34;;;;;;;45.78;30.20;;;21.50;99.90;;;;;;5069893;28;20212;-76
2021/07/13 09:28:14;;;;;;;49.95;32.63;;;21.50;99.90;;;;;;5066523;28;20656;-76
2021/07/13 09:30:42;;;;;;;45.90;30.75;;;21.50;99.90;;;;;;5068959;28;20228;-76
2021/07/13 09:33:14;;;;;;;46.13;32.05;;;21.50;99.90;;;;;;5065115;28;20202;-76
2021/07/13 09:35:58;;;;;;;44.08;29.17;;;21.50;99.90;;;;;;5070882;28;20206;-76
2021/07/13 09:38:26;;;;;;;45.78;30.55;;;21.50;99.90;;;;;;5065775;28;20205;-76
2021/07/13 09:41:04;;;;;;;45.35;28.83;;;21.50;99.90;;;;;;5066093;28;20213;-76
2021/07/13 09:43:44;;;;;;;42.28;30.42;;;21.40;99.90;;;;;;5065826;28;20201;-76
2021/07/13 09:46:27;;;;;;;38.92;28.23;;;21.30;99.90;;;;;;5072135;28;20197;-76
2021/07/13 09:49:17;;;;;;;41.50;29.50;;;21.40;99.90;;;;;;5068272;28;20346;-76
2021/07/13 09:51:46;;;;;;;43.13;30.05;;;21.50;99.90;;;;;;5063996;28;20202;-76
2021/07/13 09:54:37;;;;;;;42.95;30.35;;;21.50;99.90;;;;;;5071559;28;20262;-76
2021/07/13 09:57:07;;;;;;;44.95;30.17;;;21.50;99.90;;;;;;5066087;28;20224;-76
2021/07/13 09:59:36;;;;;;;43.03;30.05;;;21.50;99.90;;;;;;5071647;28;20259;-76
2021/07/13 10:08:22;;;;;;;39.97;27.23;;;21.80;99.90;;;;;;5085129;28;20204;-76
2021/07/13 10:10:50;;;;;;;37.38;26.10;;;21.90;99.90;;;;;;5083448;28;20205;-76
2021/07/13 10:13:19;;;;;;;37.13;28.55;;;21.90;99.90;;;;;;5082978;28;20201;-76
2021/07/13 10:15:48;;;;;;;40.40;27.60;;;22.00;99.90;;;;;;5082543;28;20201;-76
2021/07/13 10:18:15;;;;;;;42.10;27.65;;;22.00;99.90;;;;;;5085046;28;20581;-76
2021/07/13 10:20:43;;;;;;;37.60;27.35;;;22.20;99.90;;;;;;5088154;28;20200;-76
2021/07/13 10:23:12;;;;;;;37.72;27.83;;;22.20;99.90;;;;;;5083407;28;20224;-76
2021/07/13 10:25:42;;;;;;;38.60;28.20;;;22.20;99.90;;;;;;5090404;28;20230;-76
2021/07/13 10:28:09;;;;;;;42.65;28.75;;;22.20;99.90;;;;;;5083282;28;20222;-75
2021/07/13 10:30:43;;;;;;;35.40;27.40;;;22.20;99.90;;;;;;5082329;28;20200;-76
2021/07/13 10:33:30;;;;;;;39.38;27.42;;;22.40;99.90;;;;;;5092837;28;20211;-76
2021/07/13 10:36:17;;;;;;;36.10;26.38;;;22.30;99.90;;;;;;5083402;28;20197;-75
2021/07/13 10:38:44;;;;;;;39.83;25.40;;;22.40;99.90;;;;;;5086011;28;20224;-76
2021/07/13 10:41:13;;;;;;;36.92;26.63;;;22.30;99.90;;;;;;5084284;28;20211;-76
2021/07/13 10:43:47;;;;;;;40.75;28.38;;;22.40;99.90;;;;;;5085029;28;20233;-76
2021/07/13 10:46:14;;;;;;;38.10;27.38;;;22.50;99.90;;;;;;5082765;28;20201;-76
2021/07/13 10:48:42;;;;;;;39.78;27.90;;;22.60;99.90;;;;;;5090617;28;20201;-76
2021/07/13 10:51:09;;;;;;;35.10;25.77;;;22.60;99.90;;;;;;5088628;28;20287;-76
2021/07/13 10:53:39;;;;;;;36.67;27.02;;;22.70;99.90;;;;;;5083901;28;20203;-76
2021/07/13 10:56:11;;;;;;;36.42;25.80;;;22.80;99.90;;;;;;5087231;28;20205;-75
2021/07/13 10:58:50;;;;;;;34.70;26.23;;;22.90;99.90;;;;;;5088899;28;20201;-76
2021/07/13 11:01:26;;;;;;;32.13;25.08;;;22.90;99.90;;;;;;5092226;28;20216;-76
2021/07/13 11:04:08;;;;;;;32.80;25.35;;;22.80;99.90;;;;;;5088115;28;20786;-76
2021/07/13 11:06:55;;;;;;;37.60;27.38;;;22.90;99.90;;;;;;5082450;28;20261;-76
2021/07/13 11:09:25;;;;;;;41.45;27.90;;;22.80;99.90;;;;;;5083224;28;20648;-76
2021/07/13 11:11:53;;;;;;;37.40;26.45;;;22.70;99.90;;;;;;5091649;28;20205;-76
2021/07/13 11:14:22;;;;;;;36.83;26.67;;;22.70;99.90;;;;;;5083706;28;20205;-76
2021/07/13 11:16:51;;;;;;;40.25;27.23;;;22.60;99.90;;;;;;5072218;28;20643;-76
2021/07/13 11:19:18;;;;;;;38.42;28.13;;;22.60;99.90;;;;;;5068091;28;20201;-76
2021/07/13 11:21:47;;;;;;;34.90;27.48;;;22.60;99.90;;;;;;5075378;28;20201;-76
2021/07/13 11:24:16;;;;;;;38.47;28.75;;;22.60;99.90;;;;;;5068533;28;20260;-76
2021/07/13 11:26:46;;;;;;;35.92;27.10;;;22.70;99.90;;;;;;5068419;28;20236;-76
2021/07/13 11:29:19;;;;;;;34.67;27.02;;;22.70;99.90;;;;;;5070884;28;20198;-76
2021/07/13 11:31:52;;;;;;;36.78;28.70;;;22.70;99.90;;;;;;5069406;28;20217;-76
2021/07/13 11:34:21;;;;;;;37.30;26.80;;;22.60;99.90;;;;;;5084077;28;20205;-76
2021/07/13 11:36:49;;;;;;;37.15;26.88;;;22.60;99.90;;;;;;5067739;28;20198;-76
2021/07/13 11:39:22;;;;;;;37.47;26.17;;;22.70;99.90;;;;;;5067285;28;20205;-76
2021/07/13 11:41:50;;;;;;;37.75;25.92;;;22.80;99.90;;;;;;5067788;28;20271;-78
2021/07/13 11:44:17;;;;;;;39.60;26.00;;;22.90;99.90;;;;;;5067408;28;20272;-77
2021/07/13 11:46:46;;;;;;;33.80;25.08;;;22.90;99.90;;;;;;5071871;28;20202;-76
2021/07/13 11:49:17;;;;;;;30.60;24.02;;;22.90;99.90;;;;;;5075696;28;20206;-76
2021/07/13 11:51:53;;;;;;;33.58;26.10;;;22.90;99.90;;;;;;5074544;28;20220;-76
2021/07/13 11:54:22;;;;;;;34.17;26.40;;;23.00;99.90;;;;;;5074431;28;20211;-76
2021/07/13 11:56:51;;;;;;;32.13;23.88;;;23.00;99.90;;;;;;5080215;28;20232;-76
2021/07/13 11:59:19;;;;;;;32.67;24.85;;;23.00;99.90;;;;;;5082199;28;20273;-76
2021/07/13 12:01:52;;;;;;;30.95;24.10;;;23.10;99.90;;;;;;5066826;28;20212;-76
2021/07/13 12:04:20;;;;;;;32.47;25.33;;;23.20;99.90;;;;;;5067048;28;20221;-76
2021/07/13 12:06:51;;;;;;;32.25;23.45;;;23.30;99.90;;;;;;5072058;28;20205;-76
2021/07/13 12:09:23;;;;;;;29.00;23.90;;;23.30;99.90;;;;;;5066653;28;20201;-76
2021/07/13 12:11:52;;;;;;;27.88;21.55;;;23.20;99.90;;;;;;5067292;28;20206;-75
2021/07/13 12:14:20;;;;;;;29.92;22.85;;;23.30;99.90;;;;;;5067195;28;20213;-75
2021/07/13 12:16:48;;;;;;;27.65;21.85;;;23.30;99.90;;;;;;5066911;28;20198;-76
2021/07/13 12:19:17;;;;;;;27.45;20.75;;;23.30;99.90;;;;;;5073205;28;20201;-75
2021/07/13 12:21:48;;;;;;;29.45;22.02;;;23.40;99.90;;;;;;5067216;28;20206;-75
2021/07/13 12:24:17;;;;;;;27.92;21.67;;;23.40;99.90;;;;;;5070913;28;20229;-76
2021/07/13 12:26:49;;;;;;;26.60;21.33;;;23.40;99.90;;;;;;5067449;28;20233;-75
2021/07/13 12:29:16;;;;;;;25.88;20.17;;;23.30;99.90;;;;;;5066312;28;20248;-75
2021/07/13 12:31:58;;;;;;;26.52;22.13;;;23.30;99.90;;;;;;5067027;28;20213;-75
2021/07/13 12:34:28;;;;;;;30.95;22.08;;;23.50;99.90;;;;;;5072514;28;20637;-76
2021/07/13 12:37:08;;;;;;;25.65;19.85;;;23.60;99.90;;;;;;5066987;28;20228;-76
2021/07/13 12:39:37;;;;;;;25.95;22.13;;;23.70;99.90;;;;;;5065721;28;20201;-75
2021/07/13 12:42:08;;;;;;;26.80;20.55;;;23.70;99.90;;;;;;5065715;28;20351;-76
2021/07/13 12:44:38;;;;;;;26.60;20.70;;;23.70;99.90;;;;;;5066871;28;20218;-75
2021/07/13 12:47:33;;;;;;;28.25;21.35;;;23.70;99.90;;;;;;5067285;28;20205;-76
2021/07/13 12:50:02;;;;;;;24.50;18.83;;;23.90;99.90;;;;;;5065064;28;20281;-76
2021/07/13 12:52:36;;;;;;;25.20;19.50;;;24.00;99.90;;;;;;5066238;28;20197;-75